createdAt,value
2022-10-29T00:01:16.049Z,4.03
2022-10-29T00:03:47.458Z,3.55
2022-10-29T00:06:14.979Z,4.00
2022-10-29T00:08:42.956Z,4.40
2022-10-29T00:11:14.215Z,4.00
2022-10-29T00:13:46.008Z,3.50
2022-10-29T00:16:24.982Z,4.00
2022-10-29T00:18:52.265Z,4.35
2022-10-29T00:21:21.724Z,3.50
2022-10-29T00:23:52.159Z,4.18
2022-10-29T00:26:21.877Z,3.67
2022-10-29T00:28:52.547Z,4.15
2022-10-29T00:31:20.360Z,4.10
2022-10-29T00:33:50.241Z,4.18
2022-10-29T00:36:24.953Z,4.60
2022-10-29T00:38:52.164Z,3.97
2022-10-29T00:41:26.631Z,4.57
2022-10-29T00:44:15.305Z,4.82
2022-10-29T00:46:47.150Z,4.20
2022-10-29T00:49:15.596Z,4.28
2022-10-29T00:51:46.510Z,4.22
2022-10-29T00:54:18.658Z,4.25
2022-10-29T00:56:51.169Z,4.63
2022-10-29T00:59:20.849Z,4.15
2022-10-29T01:01:49.298Z,4.35
2022-10-29T01:04:20.784Z,4.35
2022-10-29T01:06:49.005Z,4.78
2022-10-29T01:09:18.600Z,4.32
2022-10-29T01:12:19.015Z,4.25
2022-10-29T01:14:57.897Z,3.70
2022-10-29T01:17:36.454Z,4.18
2022-10-29T01:20:41.189Z,3.80
2022-10-29T01:23:40.648Z,4.05
2022-10-29T01:26:41.922Z,4.68
2022-10-29T01:29:36.375Z,4.80
2022-10-29T01:32:32.189Z,4.07
2022-10-29T01:35:16.923Z,4.25
2022-10-29T01:37:50.370Z,4.53
2022-10-29T01:42:58.837Z,4.13
2022-10-29T01:45:33.404Z,4.90
2022-10-29T01:48:14.644Z,4.07
2022-10-29T01:50:48.814Z,4.10
2022-10-29T01:53:19.747Z,4.90
2022-10-29T01:55:46.976Z,4.38
2022-10-29T01:58:14.815Z,4.60
2022-10-29T02:01:21.741Z,4.53
2022-10-29T02:04:16.574Z,4.38
2022-10-29T02:07:02.200Z,4.13
2022-10-29T02:09:41.885Z,4.43
2022-10-29T02:12:36.297Z,4.35
2022-10-29T02:15:12.387Z,4.00
2022-10-29T02:17:42.044Z,4.10
2022-10-29T02:20:11.875Z,4.53
2022-10-29T02:22:39.245Z,4.32
2022-10-29T02:25:08.176Z,4.30
2022-10-29T02:27:35.944Z,4.15
2022-10-29T02:30:03.812Z,4.50
2022-10-29T02:32:32.572Z,4.15
2022-10-29T02:35:05.234Z,4.35
2022-10-29T02:37:32.462Z,4.40
2022-10-29T02:40:02.033Z,4.13
2022-10-29T02:42:33.923Z,4.47
2022-10-29T02:45:03.717Z,4.95
2022-10-29T02:47:33.417Z,4.97
2022-10-29T02:50:03.072Z,4.57
2022-10-29T02:52:32.795Z,4.40
2022-10-29T02:55:02.987Z,4.20
2022-10-29T02:57:30.169Z,4.00
2022-10-29T02:59:57.565Z,4.63
2022-10-29T03:02:24.885Z,5.00
2022-10-29T03:04:55.102Z,4.88
2022-10-29T03:07:24.829Z,4.00
2022-10-29T03:09:52.024Z,5.30
2022-10-29T03:12:19.404Z,4.45
2022-10-29T03:14:47.180Z,4.85
2022-10-29T03:17:19.206Z,4.32
2022-10-29T03:19:46.377Z,5.15
2022-10-29T03:22:15.988Z,4.28
2022-10-29T03:24:43.187Z,4.55
2022-10-29T03:27:10.349Z,5.90
2022-10-29T03:29:39.776Z,5.65
2022-10-29T03:32:07.017Z,6.03
2022-10-29T03:34:34.214Z,5.50
2022-10-29T03:37:04.350Z,6.13
2022-10-29T03:39:31.586Z,5.93
2022-10-29T03:42:01.220Z,5.78
2022-10-29T03:44:30.833Z,5.10
2022-10-29T03:46:58.057Z,5.22
2022-10-29T03:49:25.431Z,5.32
2022-10-29T03:51:57.305Z,5.53
2022-10-29T03:54:24.575Z,4.72
2022-10-29T03:56:51.777Z,4.85
2022-10-29T03:59:21.443Z,5.38
2022-10-29T04:01:48.762Z,5.50
2022-10-29T04:04:18.449Z,5.38
2022-10-29T04:06:45.642Z,5.47
2022-10-29T04:09:12.855Z,5.05
2022-10-29T04:11:40.060Z,4.60
2022-10-29T04:14:07.289Z,4.90
2022-10-29T04:16:36.672Z,5.38
2022-10-29T04:19:04.227Z,6.07
2022-10-29T04:23:21.263Z,6.07
2022-10-29T04:27:49.299Z,5.38
2022-10-29T04:29:55.365Z,5.30
2022-10-29T04:32:27.092Z,5.68
2022-10-29T04:34:56.798Z,5.53
2022-10-29T04:37:23.945Z,5.82
2022-10-29T04:39:51.166Z,5.95
2022-10-29T04:42:20.858Z,5.43
2022-10-29T04:44:48.269Z,5.32
2022-10-29T04:47:15.497Z,5.50
2022-10-29T04:49:42.657Z,5.60
2022-10-29T04:52:14.596Z,5.53
2022-10-29T04:54:42.257Z,5.82
2022-10-29T04:57:09.476Z,5.32
2022-10-29T04:59:39.166Z,5.22
2022-10-29T05:02:06.428Z,4.80
2022-10-29T05:04:34.078Z,5.40
2022-10-29T05:07:04.165Z,5.03
2022-10-29T05:09:31.345Z,5.55
2022-10-29T05:11:58.590Z,5.05
2022-10-29T05:14:25.821Z,4.90
2022-10-29T05:16:53.029Z,5.38
2022-10-29T05:19:22.743Z,5.10
2022-10-29T05:21:52.510Z,5.20
2022-10-29T05:24:19.693Z,4.53
2022-10-29T05:26:46.872Z,4.32
2022-10-29T05:29:18.620Z,4.70
2022-10-29T05:31:45.789Z,4.63
2022-10-29T05:34:12.976Z,5.20
2022-10-29T05:36:40.140Z,5.18
2022-10-29T05:39:07.333Z,4.75
2022-10-29T05:41:34.940Z,5.15
2022-10-29T05:44:02.133Z,5.30
2022-10-29T05:46:31.959Z,5.18
2022-10-29T05:49:01.361Z,4.10
2022-10-29T05:51:30.768Z,4.80
2022-10-29T05:53:58.014Z,4.82
2022-10-29T05:56:25.259Z,5.00
2022-10-29T05:58:52.606Z,4.53
2022-10-29T06:01:22.148Z,4.68
2022-10-29T06:06:22.789Z,4.65
2022-10-29T06:08:52.645Z,4.18
2022-10-29T06:11:20.074Z,4.40
2022-10-29T06:13:47.259Z,4.45
2022-10-29T06:16:14.838Z,4.22
2022-10-29T06:18:42.475Z,4.57
2022-10-29T06:21:10.077Z,4.13
2022-10-29T06:23:37.327Z,4.47
2022-10-29T06:26:07.027Z,3.72
2022-10-29T06:28:36.721Z,4.00
2022-10-29T06:31:06.454Z,3.78
2022-10-29T06:33:35.929Z,3.90
2022-10-29T06:36:03.378Z,3.80
2022-10-29T06:38:30.604Z,3.97
2022-10-29T06:40:57.982Z,3.80
2022-10-29T06:43:27.865Z,3.60
2022-10-29T06:45:55.621Z,3.67
2022-10-29T06:48:25.810Z,3.15
2022-10-29T06:50:57.780Z,3.83
2022-10-29T06:53:25.140Z,4.38
2022-10-29T06:55:52.535Z,3.70
2022-10-29T06:58:22.582Z,4.35
2022-10-29T07:00:50.386Z,3.78
2022-10-29T07:03:19.492Z,4.18
2022-10-29T07:05:47.578Z,4.20
2022-10-29T07:08:14.744Z,4.60
2022-10-29T07:10:42.020Z,4.43
2022-10-29T07:13:12.032Z,5.20
2022-10-29T07:15:41.633Z,4.47
2022-10-29T07:18:10.017Z,5.57
2022-10-29T07:20:43.182Z,5.05
2022-10-29T07:23:11.503Z,5.60
2022-10-29T07:25:39.796Z,5.82
2022-10-29T07:28:20.797Z,6.45
2022-10-29T07:30:51.047Z,5.75
2022-10-29T07:33:18.578Z,5.95
2022-10-29T07:35:46.971Z,6.30
2022-10-29T07:38:16.307Z,6.07
2022-10-29T07:40:49.089Z,5.80
2022-10-29T07:43:17.332Z,5.85
2022-10-29T07:45:52.152Z,5.65
2022-10-29T07:48:22.826Z,5.13
2022-10-29T07:50:50.202Z,5.45
2022-10-29T07:53:18.003Z,5.63
2022-10-29T07:55:51.512Z,4.93
2022-10-29T08:00:45.794Z,5.05
2022-10-29T08:03:13.479Z,5.22
2022-10-29T08:05:43.025Z,5.28
2022-10-29T08:08:12.942Z,4.97
2022-10-29T08:10:40.284Z,5.28
2022-10-29T08:13:09.730Z,5.13
2022-10-29T08:15:37.006Z,4.68
2022-10-29T08:18:11.645Z,4.70
2022-10-29T08:20:39.267Z,5.20
2022-10-29T08:23:06.903Z,4.53
2022-10-29T08:25:41.242Z,4.40
2022-10-29T08:28:14.093Z,4.20
2022-10-29T08:30:44.066Z,4.65
2022-10-29T08:33:12.025Z,4.18
2022-10-29T08:35:39.233Z,3.90
2022-10-29T08:38:08.760Z,4.53
2022-10-29T08:41:11.030Z,3.58
2022-10-29T08:44:06.375Z,4.13
2022-10-29T08:46:42.083Z,3.83
2022-10-29T08:49:22.089Z,3.47
2022-10-29T08:51:58.606Z,3.20
2022-10-29T08:54:31.369Z,3.67
2022-10-29T08:57:06.583Z,3.08
2022-10-29T08:59:40.515Z,3.03
2022-10-29T09:02:17.613Z,3.15
2022-10-29T09:04:45.022Z,2.90
2022-10-29T09:07:21.007Z,2.75
2022-10-29T09:10:07.736Z,2.53
2022-10-29T09:13:04.885Z,2.63
2022-10-29T09:16:03.296Z,2.85
2022-10-29T09:18:45.614Z,2.97
2022-10-29T09:21:37.881Z,2.75
2022-10-29T09:24:20.120Z,2.75
2022-10-29T09:27:09.693Z,3.05
2022-10-29T09:29:50.003Z,3.30
2022-10-29T09:32:33.563Z,2.70
2022-10-29T09:35:14.775Z,3.17
2022-10-29T09:37:53.683Z,2.55
2022-10-29T09:40:34.591Z,3.03
2022-10-29T09:43:26.100Z,2.55
2022-10-29T09:46:41.139Z,2.95
2022-10-29T09:49:29.284Z,3.08
2022-10-29T09:52:06.217Z,2.83
2022-10-29T09:54:34.167Z,2.33
2022-10-29T09:57:03.470Z,2.40
2022-10-29T09:59:30.832Z,3.15
2022-10-29T10:01:59.507Z,3.30
2022-10-29T10:04:41.331Z,2.88
2022-10-29T10:07:11.019Z,2.60
2022-10-29T10:09:58.278Z,2.53
2022-10-29T10:12:46.867Z,2.75
2022-10-29T10:15:19.057Z,3.10
2022-10-29T10:18:02.411Z,2.70
2022-10-29T10:20:40.049Z,2.97
2022-10-29T10:23:44.488Z,2.90
2022-10-29T10:26:43.744Z,2.72
2022-10-29T10:29:23.241Z,2.75
2022-10-29T10:32:20.115Z,2.40
2022-10-29T10:34:47.286Z,2.80
2022-10-29T10:37:19.504Z,2.85
2022-10-29T10:40:04.791Z,2.92
2022-10-29T10:42:37.020Z,2.50
2022-10-29T10:45:26.956Z,2.50
2022-10-29T10:47:59.964Z,2.78
2022-10-29T10:50:38.607Z,2.85
2022-10-29T10:53:17.663Z,2.33
2022-10-29T10:55:51.790Z,2.70
2022-10-29T10:58:31.273Z,2.85
2022-10-29T11:01:04.159Z,2.67
2022-10-29T11:03:41.143Z,2.90
2022-10-29T11:06:35.219Z,2.50
2022-10-29T11:09:25.972Z,2.70
2022-10-29T11:12:06.896Z,2.28
2022-10-29T11:14:48.897Z,2.60
2022-10-29T11:17:27.463Z,2.35
2022-10-29T11:20:02.093Z,2.58
2022-10-29T11:23:10.538Z,2.78
2022-10-29T11:25:45.745Z,2.50
2022-10-29T11:28:33.327Z,2.40
2022-10-29T11:31:11.763Z,3.25
2022-10-29T11:34:04.877Z,2.38
2022-10-29T11:36:40.343Z,2.60
2022-10-29T11:39:18.056Z,2.45
2022-10-29T11:41:54.743Z,2.22
2022-10-29T11:44:21.980Z,2.13
2022-10-29T11:47:33.381Z,2.70
2022-10-29T11:50:22.141Z,2.33
2022-10-29T11:53:10.958Z,2.10
2022-10-29T11:55:56.305Z,2.35
2022-10-29T11:58:58.686Z,2.08
2022-10-29T12:01:59.586Z,2.50
2022-10-29T12:04:33.583Z,2.53
2022-10-29T12:07:23.927Z,2.72
2022-10-29T12:10:02.745Z,1.60
2022-10-29T12:13:07.928Z,2.10
2022-10-29T12:16:13.824Z,2.40
2022-10-29T12:19:06.189Z,2.22
2022-10-29T12:22:18.145Z,2.20
2022-10-29T12:24:53.801Z,2.20
2022-10-29T12:27:36.360Z,2.28
2022-10-29T12:30:12.031Z,2.57
2022-10-29T12:32:56.494Z,2.63
2022-10-29T12:35:41.350Z,2.22
2022-10-29T12:38:28.761Z,2.20
2022-10-29T12:41:28.189Z,2.50
2022-10-29T12:44:16.904Z,2.22
2022-10-29T12:47:06.200Z,2.20
2022-10-29T12:49:53.972Z,2.40
2022-10-29T12:53:04.851Z,2.95
2022-10-29T12:55:34.569Z,2.22
2022-10-29T12:58:42.997Z,2.10
2022-10-29T13:02:09.692Z,2.55
2022-10-29T13:04:32.152Z,2.53
2022-10-29T13:07:05.954Z,2.15
2022-10-29T13:09:35.973Z,2.25
2022-10-29T13:12:10.720Z,2.72
2022-10-29T13:14:52.189Z,2.67
2022-10-29T13:17:36.489Z,2.67
2022-10-29T13:20:25.271Z,2.30
2022-10-29T13:23:01.216Z,2.95
2022-10-29T13:25:43.186Z,2.65
2022-10-29T13:28:10.813Z,2.67
2022-10-29T13:30:43.743Z,2.60
2022-10-29T13:33:32.408Z,2.33
2022-10-29T13:36:01.206Z,2.78
2022-10-29T13:39:04.673Z,2.40
2022-10-29T13:41:42.592Z,1.98
2022-10-29T13:44:19.599Z,2.38
2022-10-29T13:46:57.217Z,2.38
2022-10-29T13:49:40.965Z,2.22
2022-10-29T13:52:22.484Z,2.05
2022-10-29T13:54:59.976Z,2.28
2022-10-29T13:57:38.256Z,2.47
2022-10-29T14:00:15.689Z,2.25
2022-10-29T14:02:54.675Z,2.30
2022-10-29T14:05:26.501Z,2.08
2022-10-29T14:08:21.479Z,2.53
2022-10-29T14:10:52.003Z,2.55
2022-10-29T14:13:48.039Z,2.50
2022-10-29T14:16:16.966Z,2.50
2022-10-29T14:18:46.349Z,2.20
2022-10-29T14:21:24.339Z,2.40
2022-10-29T14:23:58.203Z,2.35
2022-10-29T14:26:26.695Z,2.60
2022-10-29T14:29:15.994Z,2.40
2022-10-29T14:31:43.194Z,2.30
2022-10-29T14:34:29.886Z,2.33
2022-10-29T14:37:07.916Z,2.05
2022-10-29T14:39:58.093Z,2.25
2022-10-29T14:42:29.088Z,2.47
2022-10-29T14:45:02.322Z,2.50
2022-10-29T14:47:33.803Z,2.33
2022-10-29T14:50:06.154Z,2.50
2022-10-29T14:52:43.183Z,2.80
2022-10-29T14:55:31.751Z,2.83
2022-10-29T14:58:04.634Z,2.20
2022-10-29T15:00:36.973Z,2.22
2022-10-29T15:03:06.978Z,2.08
2022-10-29T15:05:36.934Z,2.08
2022-10-29T15:08:29.516Z,1.83
2022-10-29T15:11:00.539Z,2.20
2022-10-29T15:13:31.567Z,2.10
2022-10-29T15:16:21.064Z,2.40
2022-10-29T15:18:53.647Z,2.38
2022-10-29T15:21:27.387Z,2.33
2022-10-29T15:23:59.946Z,2.15
2022-10-29T15:26:27.719Z,3.07
2022-10-29T15:29:00.944Z,2.90
2022-10-29T15:31:36.513Z,3.13
2022-10-29T15:34:12.168Z,3.03
2022-10-29T15:36:51.021Z,2.85
2022-10-29T15:39:48.016Z,2.80
2022-10-29T15:42:22.431Z,3.13
2022-10-29T15:45:07.831Z,2.67
2022-10-29T15:47:36.105Z,3.05
2022-10-29T15:50:04.953Z,2.72
2022-10-29T15:52:41.328Z,2.70
2022-10-29T15:55:26.085Z,3.42
2022-10-29T15:57:57.131Z,2.90
2022-10-29T16:00:29.344Z,2.50
2022-10-29T16:03:23.404Z,2.55
2022-10-29T16:05:55.003Z,2.50
2022-10-29T16:08:36.958Z,2.50
2022-10-29T16:11:08.226Z,2.75
2022-10-29T16:13:38.119Z,3.05
2022-10-29T16:16:10.135Z,2.20
2022-10-29T16:18:37.339Z,2.35
2022-10-29T16:21:06.903Z,2.85
2022-10-29T16:23:37.932Z,2.45
2022-10-29T16:26:05.214Z,2.40
2022-10-29T16:28:34.713Z,2.95
2022-10-29T16:31:01.942Z,2.78
2022-10-29T16:33:29.497Z,3.30
2022-10-29T16:35:56.782Z,2.80
2022-10-29T16:38:26.484Z,2.90
2022-10-29T16:40:53.699Z,3.05
2022-10-29T16:43:25.420Z,2.92
2022-10-29T16:48:24.705Z,3.72
2022-10-29T16:50:51.902Z,3.22
2022-10-29T16:53:19.202Z,3.30
2022-10-29T16:55:46.441Z,3.03
2022-10-29T16:58:15.545Z,2.75
2022-10-29T17:00:43.007Z,3.35
2022-10-29T17:03:17.130Z,3.78
2022-10-29T17:05:47.637Z,3.65
2022-10-29T17:08:15.343Z,3.63
2022-10-29T17:10:42.652Z,3.47
2022-10-29T17:13:11.729Z,3.60
2022-10-29T17:15:40.764Z,3.55
2022-10-29T17:18:08.631Z,3.95
2022-10-29T17:20:35.845Z,3.25
2022-10-29T17:23:03.481Z,3.95
2022-10-29T17:25:33.065Z,3.33
2022-10-29T17:28:00.518Z,2.80
2022-10-29T17:30:32.624Z,3.17
2022-10-29T17:33:00.218Z,3.55
2022-10-29T17:35:27.632Z,3.78
2022-10-29T17:37:54.852Z,3.47
2022-10-29T17:40:24.321Z,3.40
2022-10-29T17:42:51.982Z,3.40
2022-10-29T17:45:20.514Z,3.65
2022-10-29T17:47:47.677Z,3.83
2022-10-29T17:50:17.449Z,3.63
2022-10-29T17:52:51.851Z,4.07
2022-10-29T17:55:19.827Z,3.45
2022-10-29T17:57:49.333Z,3.88
2022-10-29T18:00:19.105Z,4.20
2022-10-29T18:02:50.426Z,4.10
2022-10-29T18:05:18.089Z,3.90
2022-10-29T18:07:47.795Z,4.10
2022-10-29T18:10:17.941Z,4.05
2022-10-29T18:12:47.134Z,4.32
2022-10-29T18:15:14.857Z,4.28
2022-10-29T18:17:42.120Z,4.30
2022-10-29T18:20:09.722Z,4.70
2022-10-29T18:22:36.945Z,4.28
2022-10-29T18:25:04.770Z,4.20
2022-10-29T18:27:34.578Z,4.50
2022-10-29T18:30:01.908Z,4.32
2022-10-29T18:32:29.153Z,3.90
2022-10-29T18:34:56.997Z,4.05
2022-10-29T18:37:27.060Z,4.05
2022-10-29T18:39:56.788Z,4.63
2022-10-29T18:42:24.018Z,4.18
2022-10-29T18:44:53.444Z,4.85
2022-10-29T18:47:20.820Z,4.15
2022-10-29T18:49:47.998Z,4.03
2022-10-29T18:52:15.246Z,4.20
2022-10-29T18:54:42.470Z,4.55
2022-10-29T18:57:16.772Z,4.15
2022-10-29T18:59:46.605Z,4.45
2022-10-29T19:02:16.060Z,4.10
2022-10-29T19:04:43.412Z,4.55
2022-10-29T19:07:10.595Z,4.53
2022-10-29T19:09:37.870Z,4.10
2022-10-29T19:12:07.410Z,4.85
2022-10-29T19:14:34.640Z,4.78
2022-10-29T19:17:01.866Z,4.72
2022-10-29T19:19:29.029Z,4.28
2022-10-29T19:21:58.662Z,4.45
2022-10-29T19:24:28.226Z,4.80
2022-10-29T19:26:55.575Z,4.32
2022-10-29T19:29:22.821Z,5.00
2022-10-29T19:31:50.040Z,4.57
2022-10-29T19:34:19.608Z,4.75
2022-10-29T19:36:49.286Z,4.53
2022-10-29T19:39:16.540Z,4.63
2022-10-29T19:41:48.808Z,4.78
2022-10-29T19:44:18.317Z,4.88
2022-10-29T19:46:48.205Z,5.43
2022-10-29T19:49:15.402Z,5.07
2022-10-29T19:51:43.122Z,5.28
2022-10-29T19:54:12.443Z,4.53
2022-10-29T19:56:39.671Z,4.47
2022-10-29T19:59:07.449Z,4.82
2022-10-29T20:01:39.064Z,4.00
2022-10-29T20:04:07.432Z,4.65
2022-10-29T20:06:37.125Z,4.60
2022-10-29T20:09:07.078Z,4.32
2022-10-29T20:11:36.412Z,4.25
2022-10-29T20:14:04.209Z,4.32
2022-10-29T20:16:31.476Z,4.80
2022-10-29T20:18:59.116Z,4.88
2022-10-29T20:21:26.327Z,4.82
2022-10-29T20:23:54.887Z,4.03
2022-10-29T20:26:22.881Z,4.45
2022-10-29T20:28:50.077Z,4.63
2022-10-29T20:31:17.274Z,4.30
2022-10-29T20:33:58.224Z,4.07
2022-10-29T20:36:29.315Z,4.22
2022-10-29T20:38:56.742Z,4.25
2022-10-29T20:41:24.202Z,3.80
2022-10-29T20:43:58.828Z,4.10
2022-10-29T20:46:26.517Z,4.50
2022-10-29T20:48:54.154Z,3.95
2022-10-29T20:51:22.800Z,3.85
2022-10-29T20:53:55.499Z,4.50
2022-10-29T20:56:25.397Z,4.07
2022-10-29T20:58:53.103Z,3.83
2022-10-29T21:01:22.870Z,4.10
2022-10-29T21:03:53.128Z,4.63
2022-10-29T21:06:23.329Z,4.07
2022-10-29T21:08:51.609Z,4.35
2022-10-29T21:11:21.061Z,4.40
2022-10-29T21:13:48.819Z,4.28
2022-10-29T21:16:23.120Z,3.97
2022-10-29T21:18:52.578Z,4.03
2022-10-29T21:21:20.378Z,4.00
2022-10-29T21:23:47.618Z,3.70
2022-10-29T21:26:23.703Z,3.58
2022-10-29T21:28:52.544Z,3.78
2022-10-29T21:31:21.378Z,3.92
2022-10-29T21:33:52.718Z,4.40
2022-10-29T21:36:20.710Z,4.95
2022-10-29T21:38:48.313Z,5.07
2022-10-29T21:41:18.414Z,4.35
2022-10-29T21:43:45.661Z,3.90
2022-10-29T21:46:15.760Z,4.05
2022-10-29T21:48:45.433Z,3.97
2022-10-29T21:51:15.017Z,3.63
2022-10-29T21:53:42.210Z,3.88
2022-10-29T21:56:12.434Z,4.20
2022-10-29T21:58:39.683Z,4.18
2022-10-29T22:01:08.087Z,3.65
2022-10-29T22:03:40.581Z,3.78
2022-10-29T22:06:16.728Z,4.45
2022-10-29T22:08:46.958Z,4.00
2022-10-29T22:11:17.413Z,4.10
2022-10-29T22:13:47.586Z,4.05
2022-10-29T22:16:17.731Z,3.63
2022-10-29T22:18:44.915Z,4.30
2022-10-29T22:21:25.445Z,4.20
2022-10-29T22:23:57.227Z,4.00
2022-10-29T22:26:29.560Z,3.70
2022-10-29T22:28:56.830Z,3.72
2022-10-29T22:31:25.006Z,3.92
2022-10-29T22:33:52.685Z,4.43
2022-10-29T22:36:25.305Z,5.38
2022-10-29T22:38:56.723Z,4.77
2022-10-29T22:41:25.972Z,4.95
2022-10-29T22:43:53.857Z,4.88
2022-10-29T22:46:21.860Z,4.53
2022-10-29T22:48:51.259Z,4.22
2022-10-29T22:51:21.654Z,4.38
2022-10-29T22:53:49.857Z,3.58
2022-10-29T22:56:22.337Z,3.83
2022-10-29T22:58:52.635Z,3.92
2022-10-29T23:01:25.393Z,3.90
2022-10-29T23:03:53.287Z,4.05
2022-10-29T23:06:22.751Z,3.83
2022-10-29T23:08:55.149Z,3.75
2022-10-29T23:11:25.315Z,4.18
2022-10-29T23:13:57.739Z,4.28
2022-10-29T23:16:29.127Z,4.18
2022-10-29T23:18:58.484Z,3.72
2022-10-29T23:21:25.969Z,4.40
2022-10-29T23:23:53.718Z,3.97
2022-10-29T23:26:22.928Z,4.10
2022-10-29T23:28:50.237Z,4.40
2022-10-29T23:31:25.521Z,3.92
2022-10-29T23:33:54.696Z,3.63
2022-10-29T23:36:23.665Z,3.88
2022-10-29T23:38:59.092Z,3.78
2022-10-29T23:41:27.343Z,3.47
2022-10-29T23:43:54.640Z,3.72
2022-10-29T23:46:22.404Z,4.20
2022-10-29T23:48:52.039Z,4.03
2022-10-29T23:51:19.805Z,4.15
2022-10-29T23:53:49.199Z,4.05
2022-10-29T23:56:18.975Z,4.07
2022-10-29T23:58:48.589Z,4.25
